Woody Point, Canada
Current Conditions -  °F | °C
As of 1:00 AM on Friday 28 Nov 2014 (Local Time) from CYDF Reporting Station
Light Snow Light Snow  
Wind Chill: -7°   Ceiling: 5000
Heat Index: -2°   Visibility: 10mi
Dew Point: -6°   Wind: 10mph
Humidity: 74%   Direction: 360°N
Pressure: 29.59"   Gusts: 21mph
Location:  49.5°N, 57.93°W
Report Text: CYDF 280400Z 36009G18KT 10SM -SN OVC050 M02/M06 A2959 RMK SC8 SLP020
Loading
Personal Weather Stations






























Interactive Weather Map New forecast layout! Learn more

10-Day Weather Forecast

Advertisements
Track Severe Weather on mobile